Time;durP1;ratioP1;P1;durP2;ratioP2;P2;SDS_P1;SDS_P2;PMS_P1;PMS_P2;Temp;Humidity;BMP_temperature;BMP_pressure;BME280_temperature;BME280_humidity;BME280_pressure;Samples;Min_cycle;Max_cycle;Signal;HPM_P1;HPM_P2
2021/08/15 00:02:11;;;;;;;6.87;3.83;;;;;;;17.84;69.22;99122.10;124812;1093;64224;-24
2021/08/15 00:04:40;;;;;;;7.53;4.53;;;;;;;17.57;69.42;99111.02;124769;1093;64410;-23
2021/08/15 00:07:19;;;;;;;8.47;4.20;;;;;;;17.25;70.57;99112.70;124695;1092;64284;-23
2021/08/15 00:09:49;;;;;;;9.30;3.90;;;;;;;16.98;70.67;99114.72;124660;1093;64291;-23
2021/08/15 00:12:18;;;;;;;6.30;2.83;;;;;;;17.07;71.46;99113.73;124642;1093;64362;-23
2021/08/15 00:14:47;;;;;;;9.30;4.27;;;;;;;17.76;70.22;99109.80;124633;1093;64278;-23
2021/08/15 00:17:16;;;;;;;5.80;3.27;;;;;;;17.95;69.39;99111.20;124799;1092;64764;-23
2021/08/15 00:20:06;;;;;;;6.40;3.63;;;;;;;17.75;69.46;99112.58;124742;1093;64262;-23
2021/08/15 00:22:39;;;;;;;8.63;4.20;;;;;;;17.45;69.95;99105.27;124634;1093;64382;-22
2021/08/15 00:25:09;;;;;;;7.37;4.27;;;;;;;17.15;70.01;99109.45;124601;1093;64371;-23
2021/08/15 00:27:38;;;;;;;7.43;4.17;;;;;;;16.86;71.14;99105.48;124723;1092;64288;-25
2021/08/15 00:30:07;;;;;;;7.90;3.87;;;;;;;16.94;71.95;99108.11;124606;1093;64301;-23
2021/08/15 00:32:37;;;;;;;5.20;3.20;;;;;;;17.67;70.31;99108.98;124606;1093;64393;-23
2021/08/15 00:35:06;;;;;;;8.55;3.65;;;;;;;17.78;69.43;99102.55;124571;1093;64276;-22
2021/08/15 00:37:35;;;;;;;8.03;3.40;;;;;;;17.62;69.70;99092.06;124619;1092;64304;-22
2021/08/15 00:40:05;;;;;;;7.00;3.60;;;;;;;17.33;69.75;99090.84;124629;1092;64264;-22
2021/08/15 00:42:34;;;;;;;7.50;4.17;;;;;;;17.02;71.18;99091.52;124628;1093;64462;-25
2021/08/15 00:45:17;;;;;;;7.13;3.60;;;;;;;17.08;71.90;99094.33;124736;1093;64335;-27
2021/08/15 00:48:09;;;;;;;8.73;3.87;;;;;;;17.62;70.11;99082.37;124530;1093;64387;-24
2021/08/15 00:50:47;;;;;;;9.73;3.57;;;;;;;17.65;69.48;99084.66;124512;1093;64265;-25
2021/08/15 00:53:17;;;;;;;5.87;3.20;;;;;;;17.41;70.49;99077.66;124568;1093;64279;-21
2021/08/15 00:55:52;;;;;;;10.40;4.43;;;;;;;16.99;72.42;99084.80;124715;1093;64191;-21
2021/08/15 00:58:21;;;;;;;5.93;3.80;;;;;;;16.83;71.97;99084.77;124740;1093;64375;-21
2021/08/15 01:00:50;;;;;;;7.17;3.57;;;;;;;16.94;72.98;99079.17;124661;1093;64396;-22
2021/08/15 01:03:19;;;;;;;6.10;3.45;;;;;;;17.72;70.64;99078.69;124748;1092;64275;-22
2021/08/15 01:05:48;;;;;;;5.53;3.63;;;;;;;17.93;69.36;99080.73;124672;1093;64301;-22
2021/08/15 01:08:17;;;;;;;5.70;3.53;;;;;;;17.74;68.89;99087.23;124808;1093;64262;-22
2021/08/15 01:11:09;;;;;;;5.57;3.13;;;;;;;17.42;69.75;99084.57;124633;1093;64330;-22
2021/08/15 01:14:04;;;;;;;8.23;3.30;;;;;;;17.07;70.01;99086.59;124642;1093;64432;-22
2021/08/15 01:16:34;;;;;;;5.50;3.20;;;;;;;17.08;71.86;99083.80;124771;1092;64204;-22
2021/08/15 01:19:05;;;;;;;7.87;3.80;;;;;;;17.63;69.96;99078.75;124621;1093;64273;-22
2021/08/15 01:21:54;;;;;;;9.33;3.27;;;;;;;17.65;69.57;99082.03;124613;1093;65141;-22
2021/08/15 01:24:28;;;;;;;6.57;3.23;;;;;;;17.39;70.11;99075.19;124718;1093;64357;-22
2021/08/15 01:26:58;;;;;;;8.00;3.13;;;;;;;16.97;71.37;99076.25;124649;1093;64352;-22
2021/08/15 01:29:27;;;;;;;7.27;3.63;;;;;;;16.75;71.19;99073.28;124628;1093;64339;-22
2021/08/15 01:31:58;;;;;;;6.67;3.20;;;;;;;16.75;72.68;99077.71;124677;1093;64283;-22
2021/08/15 01:34:26;;;;;;;6.43;3.60;;;;;;;17.23;71.17;99072.58;124768;1092;64263;-22
2021/08/15 01:37:15;;;;;;;7.93;3.70;;;;;;;17.31;70.29;99071.77;124594;1093;64279;-22
2021/08/15 01:39:44;;;;;;;5.87;3.37;;;;;;;17.05;70.90;99078.88;124777;1093;64343;-22
2021/08/15 01:42:13;;;;;;;6.73;3.43;;;;;;;16.73;71.19;99074.42;124613;1093;64208;-22
2021/08/15 01:44:41;;;;;;;6.67;3.67;;;;;;;16.50;71.95;99075.89;124786;1093;64265;-22
2021/08/15 01:47:10;;;;;;;8.27;3.13;;;;;;;16.62;73.03;99070.32;124638;1093;64282;-22
2021/08/15 01:49:40;;;;;;;8.27;3.50;;;;;;;17.24;70.69;99075.06;124760;1093;64312;-22
2021/08/15 01:52:08;;;;;;;5.00;2.83;;;;;;;17.39;70.78;99063.84;124708;1091;64374;-22
2021/08/15 01:54:37;;;;;;;4.50;2.90;;;;;;;17.21;69.83;99064.87;124752;1092;64259;-22
2021/08/15 01:57:08;;;;;;;7.40;3.33;;;;;;;16.91;70.39;99061.09;124770;1093;64259;-22
2021/08/15 01:59:37;;;;;;;10.27;3.33;;;;;;;16.59;70.40;99063.56;124779;1093;64281;-26
2021/08/15 02:02:06;;;;;;;6.43;3.70;;;;;;;16.26;71.19;99062.73;124741;1093;64384;-26
2021/08/15 02:04:35;;;;;;;4.23;2.67;;;;;;;16.28;72.44;99058.14;124825;1093;64284;-24
2021/08/15 02:07:05;;;;;;;4.27;2.93;;;;;;;16.95;70.88;99063.25;124866;1093;64288;-24
2021/08/15 02:09:33;;;;;;;6.23;3.20;;;;;;;17.06;70.58;99059.48;124620;1092;64284;-21
2021/08/15 02:12:22;;;;;;;5.77;3.63;;;;;;;16.76;70.37;99059.16;124524;1093;65494;-24
2021/08/15 02:14:51;;;;;;;7.13;3.20;;;;;;;16.43;71.34;99059.13;124690;1093;64259;-25
2021/08/15 02:17:20;;;;;;;10.17;4.03;;;;;;;16.11;71.56;99060.72;124753;1093;64387;-28
2021/08/15 02:19:49;;;;;;;8.30;3.50;;;;;;;15.85;72.21;99061.62;124747;1093;64262;-24
2021/08/15 02:22:19;;;;;;;4.17;2.73;;;;;;;15.91;74.51;99060.17;124767;1093;64214;-23
2021/08/15 02:24:47;;;;;;;4.77;2.67;;;;;;;16.56;72.90;99057.83;124767;1093;64304;-22
2021/08/15 02:27:16;;;;;;;5.60;3.13;;;;;;;16.82;71.77;99062.92;124710;1093;64281;-22
2021/08/15 02:29:45;;;;;;;8.73;3.47;;;;;;;16.72;71.04;99059.63;124799;1093;64301;-22
2021/08/15 02:32:14;;;;;;;7.27;3.83;;;;;;;16.47;71.17;99057.81;124769;1093;64263;-22
2021/08/15 02:34:46;;;;;;;5.13;3.40;;;;;;;16.19;72.39;99052.86;124772;1092;64265;-22
2021/08/15 02:37:15;;;;;;;5.87;3.17;;;;;;;16.20;73.23;99054.51;124736;1093;64259;-22
2021/08/15 02:39:44;;;;;;;5.13;3.00;;;;;;;16.83;71.96;99061.09;124740;1093;64153;-22
2021/08/15 02:42:12;;;;;;;5.40;3.13;;;;;;;16.94;71.00;99064.23;124797;1093;64352;-22
2021/08/15 02:44:42;;;;;;;7.30;4.17;;;;;;;16.75;70.80;99057.52;124743;1093;64774;-22
2021/08/15 02:47:11;;;;;;;5.07;3.00;;;;;;;16.45;72.08;99056.35;124633;1093;64440;-22
2021/08/15 02:49:41;;;;;;;7.43;3.93;;;;;;;16.16;71.39;99052.34;124758;1093;64309;-22
2021/08/15 02:52:10;;;;;;;7.50;3.97;;;;;;;15.86;72.36;99063.30;124759;1092;64275;-22
2021/08/15 02:54:39;;;;;;;5.43;3.00;;;;;;;15.93;74.04;99062.63;124769;1093;64343;-22
2021/08/15 02:57:08;;;;;;;6.85;3.00;;;;;;;16.62;71.99;99054.55;124751;1092;64284;-22
2021/08/15 02:59:51;;;;;;;5.25;3.28;;;;;;;16.74;71.23;99055.87;124728;1092;64275;-22
2021/08/15 03:02:21;;;;;;;5.73;3.07;;;;;;;16.50;71.17;99054.86;124788;1093;64236;-22
2021/08/15 03:04:51;;;;;;;6.37;3.60;;;;;;;16.19;71.86;99055.49;124619;1092;64343;-21
2021/08/15 03:07:20;;;;;;;8.70;3.73;;;;;;;15.87;72.24;99056.22;124704;1092;64278;-21
2021/08/15 03:09:49;;;;;;;6.40;3.27;;;;;;;15.86;74.18;99051.92;124742;1093;64300;-22
2021/08/15 03:12:19;;;;;;;4.93;2.73;;;;;;;16.50;72.36;99057.49;124620;1093;64304;-22
2021/08/15 03:15:09;;;;;;;4.27;3.27;;;;;;;16.58;71.43;99066.38;124722;1093;65309;-22
2021/08/15 03:17:40;;;;;;;7.27;3.33;;;;;;;16.37;72.04;99059.77;124775;1093;64423;-22
2021/08/15 03:20:12;;;;;;;8.30;3.77;;;;;;;16.11;72.48;99054.66;124639;1093;64376;-22
2021/08/15 03:22:41;;;;;;;9.40;3.77;;;;;;;15.90;72.87;99054.09;124625;1093;64352;-22
2021/08/15 03:25:11;;;;;;;7.40;3.20;;;;;;;16.08;73.53;99055.79;124735;1093;64304;-22
2021/08/15 03:27:40;;;;;;;10.43;3.90;;;;;;;16.64;71.82;99056.02;124623;1093;64323;-24
2021/08/15 03:30:10;;;;;;;7.03;3.33;;;;;;;16.72;71.82;99059.63;124775;1093;64361;-24
2021/08/15 03:32:39;;;;;;;7.10;3.60;;;;;;;16.64;72.18;99052.58;124633;1093;64272;-25
2021/08/15 03:35:08;;;;;;;9.70;4.17;;;;;;;16.40;72.72;99054.19;124816;1093;64281;-24
2021/08/15 03:37:39;;;;;;;7.60;2.67;;;;;;;16.55;72.66;99058.81;124939;1093;64259;-22
2021/08/15 03:40:08;;;;;;;9.77;3.33;;;;;;;16.90;71.71;99048.94;124834;1092;64179;-22
2021/08/15 03:42:38;;;;;;;5.87;2.97;;;;;;;17.12;70.13;99047.45;124567;1093;64347;-24
2021/08/15 03:45:20;;;;;;;9.27;3.73;;;;;;;17.03;70.66;99045.81;124572;1093;64268;-27
2021/08/15 03:47:48;;;;;;;5.27;3.00;;;;;;;17.10;70.47;99044.17;124710;1093;64355;-23
2021/08/15 03:50:18;;;;;;;5.00;2.87;;;;;;;17.27;71.62;99039.68;124566;1093;64253;-24
2021/08/15 03:52:47;;;;;;;4.97;2.73;;;;;;;17.88;68.79;99036.48;124742;1092;64304;-22
2021/08/15 03:55:27;;;;;;;7.40;3.03;;;;;;;18.06;68.67;99033.61;124710;1093;64419;-22
2021/08/15 03:57:56;;;;;;;6.37;3.73;;;;;;;17.86;68.27;99046.38;124777;1093;64275;-22
2021/08/15 04:00:24;;;;;;;5.77;3.30;;;;;;;17.59;68.78;99037.95;124581;1093;64262;-22
2021/08/15 04:02:54;;;;;;;9.23;3.57;;;;;;;17.46;69.63;99037.66;124796;1093;64282;-22
2021/08/15 04:05:23;;;;;;;6.33;2.33;;;;;;;17.72;68.38;99041.83;124642;1093;64320;-22
2021/08/15 04:07:59;;;;;;;7.20;3.53;;;;;;;18.38;66.42;99044.11;124713;1092;64415;-22
2021/08/15 04:10:28;;;;;;;6.13;3.13;;;;;;;18.56;66.48;99049.89;124737;1093;64307;-23
2021/08/15 04:12:58;;;;;;;10.63;3.53;;;;;;;18.51;66.31;99052.27;124604;1093;64265;-22
2021/08/15 04:15:28;;;;;;;6.87;3.83;;;;;;;18.36;66.35;99056.65;124767;1093;64236;-22
2021/08/15 04:17:57;;;;;;;5.17;3.50;;;;;;;18.14;67.79;99051.17;124792;1093;64186;-22
2021/08/15 04:20:26;;;;;;;5.73;3.67;;;;;;;18.18;67.07;99057.74;124729;1093;64404;-22
2021/08/15 04:22:55;;;;;;;4.30;3.00;;;;;;;18.20;67.77;99055.75;124778;1093;64339;-22
2021/08/15 04:25:24;;;;;;;6.77;3.47;;;;;;;18.67;65.52;99058.38;124749;1093;64291;-22
2021/08/15 04:27:53;;;;;;;9.33;4.20;;;;;;;18.58;66.02;99053.17;124737;1093;64289;-22
2021/08/15 04:30:22;;;;;;;5.50;3.63;;;;;;;18.37;66.50;99060.92;124771;1092;64262;-22
2021/08/15 04:32:51;;;;;;;5.50;3.53;;;;;;;18.19;67.41;99051.48;124756;1092;64211;-22
2021/08/15 04:35:19;;;;;;;7.70;3.73;;;;;;;18.45;66.67;99050.33;124718;1093;65773;-22
2021/08/15 04:37:48;;;;;;;14.90;3.95;;;;;;;18.41;66.17;99052.48;124587;1093;64269;-22
2021/08/15 04:40:18;;;;;;;8.47;3.90;;;;;;;18.41;67.00;99051.67;124749;1092;64652;-22
2021/08/15 04:42:46;;;;;;;8.13;3.10;;;;;;;18.96;66.56;99056.86;124733;1093;64307;-22
2021/08/15 04:45:15;;;;;;;5.60;3.67;;;;;;;19.08;64.38;99051.96;124740;1093;64426;-22
2021/08/15 04:47:44;;;;;;;10.13;3.90;;;;;;;19.27;64.78;99040.05;124759;1093;64425;-22
2021/08/15 04:50:13;;;;;;;9.37;3.37;;;;;;;19.34;64.09;99043.60;124604;1093;64348;-22
2021/08/15 04:52:42;;;;;;;7.37;3.63;;;;;;;19.44;65.15;99040.67;124763;1093;64381;-22
2021/08/15 04:55:12;;;;;;;5.67;3.83;;;;;;;19.64;64.47;99040.13;124757;1093;64217;-22
2021/08/15 04:57:41;;;;;;;5.13;3.20;;;;;;;19.81;63.70;99025.69;124622;1093;64371;-22
2021/08/15 05:00:11;;;;;;;5.93;3.23;;;;;;;20.20;64.00;99034.27;124778;1093;64304;-23
2021/08/15 05:02:42;;;;;;;6.43;3.13;;;;;;;21.11;61.09;99030.13;124636;1093;64198;-22
2021/08/15 05:05:12;;;;;;;9.30;3.87;;;;;;;21.58;60.52;99034.86;124659;1092;64211;-22
2021/08/15 05:07:42;;;;;;;5.90;3.50;;;;;;;21.32;60.12;99033.70;124771;1093;64263;-21
2021/08/15 05:10:11;;;;;;;6.63;3.50;;;;;;;21.22;59.87;99026.91;124585;1093;64392;-21
2021/08/15 05:12:41;;;;;;;8.20;3.67;;;;;;;21.18;60.60;99031.00;124752;1092;64326;-25
2021/08/15 05:15:10;;;;;;;8.90;3.50;;;;;;;21.16;59.89;99032.19;124727;1093;64335;-26
2021/08/15 05:17:39;;;;;;;5.83;3.00;;;;;;;21.21;60.15;99030.58;124596;1093;64194;-26
2021/08/15 05:20:08;;;;;;;5.97;4.03;;;;;;;21.02;60.79;99031.29;124786;1093;64368;-24
2021/08/15 05:22:37;;;;;;;16.33;3.60;;;;;;;21.09;60.72;99040.09;124775;1093;64192;-22
2021/08/15 05:25:08;;;;;;;7.30;4.03;;;;;;;21.06;60.01;99028.05;124930;1093;64386;-23
2021/08/15 05:27:36;;;;;;;7.47;3.40;;;;;;;21.05;60.43;99033.55;124584;1093;64360;-22
2021/08/15 05:30:06;;;;;;;5.73;3.60;;;;;;;21.09;60.74;99027.66;124626;1092;64247;-22
2021/08/15 05:32:36;;;;;;;7.53;3.70;;;;;;;20.95;61.07;99026.77;124483;1092;64268;-24
2021/08/15 05:35:06;;;;;;;8.03;3.83;;;;;;;20.89;60.73;99016.95;124676;1093;64431;-25
2021/08/15 05:37:34;;;;;;;6.00;3.90;;;;;;;20.79;60.56;99019.11;124604;1093;64336;-30
2021/08/15 05:40:04;;;;;;;6.60;4.20;;;;;;;20.65;61.70;99021.64;124759;1093;64289;-23
2021/08/15 05:42:33;;;;;;;8.40;3.90;;;;;;;20.56;61.80;99030.72;124577;1093;64311;-26
2021/08/15 05:45:02;;;;;;;4.65;3.00;;;;;;;20.78;61.47;99030.70;124584;1093;64352;-26
2021/08/15 05:47:31;;;;;;;6.33;3.27;;;;;;;21.30;60.26;99030.42;124766;1093;64304;-25
2021/08/15 05:49:59;;;;;;;5.23;3.13;;;;;;;21.74;59.24;99023.92;124712;1092;64454;-21
2021/08/15 05:52:29;;;;;;;8.00;3.40;;;;;;;21.76;59.32;99032.49;124651;1093;64296;-21
2021/08/15 05:54:57;;;;;;;6.15;3.70;;;;;;;21.77;58.57;99035.97;124737;1093;64259;-21
2021/08/15 05:57:28;;;;;;;4.75;3.80;;;;;;;21.88;59.10;99034.58;124759;1093;64262;-21
2021/08/15 05:59:58;;;;;;;9.57;4.07;;;;;;;21.77;58.70;99025.38;124707;1092;64319;-21
2021/08/15 06:02:27;;;;;;;7.90;3.57;;;;;;;21.77;58.87;99034.13;124748;1093;64313;-21
2021/08/15 06:04:57;;;;;;;9.97;3.90;;;;;;;21.78;58.38;99030.47;124777;1093;64282;-21
2021/08/15 06:07:25;;;;;;;6.20;3.10;;;;;;;21.89;58.60;99021.11;124670;1093;64256;-21
2021/08/15 06:09:54;;;;;;;11.17;3.63;;;;;;;21.96;57.21;99027.25;124732;1093;64294;-21
2021/08/15 06:12:23;;;;;;;8.30;3.63;;;;;;;22.21;57.62;99023.22;124771;1092;64355;-21
2021/08/15 06:14:53;;;;;;;4.37;3.50;;;;;;;22.13;56.46;99025.04;124751;1093;64362;-21
2021/08/15 06:17:23;;;;;;;8.27;4.73;;;;;;;22.21;56.75;99023.22;124737;1093;64278;-21
2021/08/15 06:20:12;;;;;;;9.57;3.70;;;;;;;22.45;56.75;99023.70;124568;1093;64352;-21
2021/08/15 06:22:57;;;;;;;5.50;3.20;;;;;;;22.34;56.27;99028.55;124573;1093;64253;-21
2021/08/15 06:25:26;;;;;;;5.93;4.60;;;;;;;22.47;56.86;99026.97;124743;1092;64411;-21
2021/08/15 06:27:56;;;;;;;7.53;3.77;;;;;;;22.63;55.96;99029.20;124790;1093;64352;-22
2021/08/15 06:30:26;;;;;;;8.00;3.77;;;;;;;22.80;56.45;99029.59;124748;1093;64798;-21
2021/08/15 06:32:55;;;;;;;5.57;3.43;;;;;;;23.05;56.30;99023.65;124620;1093;64272;-21
2021/08/15 06:35:26;;;;;;;8.77;4.10;;;;;;;23.04;55.26;99022.02;124642;1093;64291;-21
2021/08/15 06:37:55;;;;;;;5.27;3.20;;;;;;;23.23;55.25;99024.84;124665;1093;64274;-21
2021/08/15 06:40:25;;;;;;;7.35;4.30;;;;;;;23.24;54.98;99027.31;124781;1092;64502;-22
2021/08/15 06:43:03;;;;;;;6.40;3.70;;;;;;;23.23;55.57;99024.84;124765;1093;64208;-21
2021/08/15 06:45:33;;;;;;;8.17;4.40;;;;;;;23.33;55.97;99021.77;124643;1093;64278;-22
2021/08/15 06:48:04;;;;;;;6.17;3.73;;;;;;;23.48;54.67;99019.66;124635;1093;64371;-21
2021/08/15 06:50:33;;;;;;;9.70;4.05;;;;;;;23.63;54.74;99026.56;124616;1093;64339;-22
2021/08/15 06:53:04;;;;;;;7.85;3.70;;;;;;;23.79;54.47;99023.43;124751;1093;64345;-21
2021/08/15 06:55:33;;;;;;;7.57;3.17;;;;;;;23.80;54.33;99010.94;124634;1093;64282;-21
2021/08/15 06:58:02;;;;;;;10.00;3.87;;;;;;;23.84;54.43;99014.80;124672;1092;64446;-22
2021/08/15 07:00:31;;;;;;;17.75;4.30;;;;;;;24.03;54.17;99015.74;124770;1093;64179;-21
2021/08/15 07:03:00;;;;;;;8.13;3.70;;;;;;;24.04;54.41;99028.02;124734;1093;64808;-21
2021/08/15 07:05:29;;;;;;;7.23;3.83;;;;;;;24.18;53.75;99026.08;124797;1092;64405;-21
2021/08/15 07:07:58;;;;;;;6.13;3.67;;;;;;;24.14;54.01;99025.70;124738;1093;64288;-22
2021/08/15 07:10:28;;;;;;;4.80;3.33;;;;;;;24.27;53.80;99023.99;124714;1093;64355;-21
2021/08/15 07:12:58;;;;;;;7.80;3.70;;;;;;;24.32;53.78;99016.98;124625;1092;64320;-21
2021/08/15 07:15:30;;;;;;;5.50;3.93;;;;;;;24.49;54.41;99022.58;124775;1093;64414;-22
2021/08/15 07:18:02;;;;;;;6.47;3.70;;;;;;;24.73;52.83;99016.69;124784;1093;64352;-22
2021/08/15 07:20:32;;;;;;;7.27;4.17;;;;;;;24.92;53.53;99017.53;124585;1093;64259;-22
2021/08/15 07:23:02;;;;;;;6.93;4.07;;;;;;;25.12;53.15;99013.86;124655;1093;64275;-22
2021/08/15 07:25:31;;;;;;;6.50;4.00;;;;;;;25.32;51.46;99016.30;124601;1093;64329;-22
2021/08/15 07:28:01;;;;;;;8.27;4.33;;;;;;;25.63;52.68;99023.31;124663;1093;64414;-22
2021/08/15 07:30:30;;;;;;;9.13;4.07;;;;;;;25.83;51.96;99016.91;124631;1092;64348;-22
2021/08/15 07:33:03;;;;;;;6.17;3.70;;;;;;;26.08;51.09;99021.27;124617;1093;64326;-23
2021/08/15 07:35:35;;;;;;;8.47;4.80;;;;;;;25.95;51.27;99023.11;124692;1093;64267;-24
2021/08/15 07:38:04;;;;;;;7.33;4.03;;;;;;;25.74;49.75;99018.26;124636;1093;64385;-27
2021/08/15 07:40:33;;;;;;;7.67;3.93;;;;;;;25.96;49.70;99019.41;124593;1092;64220;-25
2021/08/15 07:43:03;;;;;;;6.87;3.83;;;;;;;25.76;50.32;99018.84;124780;1093;64435;-24
2021/08/15 07:45:44;;;;;;;8.53;4.13;;;;;;;25.96;50.57;99016.73;124513;1093;64266;-24
2021/08/15 07:48:13;;;;;;;8.05;3.75;;;;;;;26.36;49.66;99017.20;124586;1092;64306;-23
2021/08/15 07:50:42;;;;;;;7.00;3.90;;;;;;;26.55;49.81;99007.24;124930;1093;64635;-22
2021/08/15 07:53:27;;;;;;;8.30;3.73;;;;;;;26.63;48.72;99001.56;124842;1092;65140;-22
2021/08/15 07:55:56;;;;;;;6.23;3.47;;;;;;;26.61;48.25;99005.49;124569;1093;64447;-22
2021/08/15 07:58:25;;;;;;;5.30;3.87;;;;;;;26.67;48.18;99008.06;124826;1092;64225;-24
2021/08/15 08:00:55;;;;;;;8.53;4.20;;;;;;;26.78;48.19;99000.27;124776;1093;64290;-28
2021/08/15 08:03:25;;;;;;;6.97;3.53;;;;;;;26.98;47.84;98994.58;124726;1093;64291;-25
2021/08/15 08:05:54;;;;;;;8.10;4.00;;;;;;;27.08;48.07;99002.02;124736;1093;64440;-27
2021/08/15 08:08:23;;;;;;;5.27;3.60;;;;;;;27.40;48.72;98999.72;124747;1092;64363;-26
2021/08/15 08:10:55;;;;;;;8.13;3.40;;;;;;;27.71;48.28;99003.03;124743;1093;64267;-26
2021/08/15 08:13:24;;;;;;;5.70;3.53;;;;;;;27.74;46.23;99002.55;124742;1093;64259;-26
2021/08/15 08:15:56;;;;;;;9.23;3.43;;;;;;;27.78;47.26;98999.41;124724;1093;64268;-24
2021/08/15 08:18:25;;;;;;;7.53;3.57;;;;;;;27.73;45.11;98997.43;124731;1093;64371;-25
2021/08/15 08:20:54;;;;;;;4.15;3.55;;;;;;;27.85;46.87;98997.37;124759;1093;64426;-21
2021/08/15 08:23:23;;;;;;;7.50;4.30;;;;;;;28.12;45.40;98994.13;124771;1093;64707;-22
2021/08/15 08:25:52;;;;;;;9.17;3.93;;;;;;;27.92;45.80;98991.89;124761;1093;64223;-22
2021/08/15 08:28:28;;;;;;;5.63;3.30;;;;;;;28.04;45.27;98995.28;124737;1092;64294;-22
2021/08/15 08:30:57;;;;;;;4.93;3.93;;;;;;;28.07;45.29;98992.13;124615;1093;64367;-22
2021/08/15 08:33:27;;;;;;;5.83;3.40;;;;;;;28.02;44.33;98995.55;124752;1093;64307;-22
2021/08/15 08:36:06;;;;;;;10.70;3.93;;;;;;;28.11;44.61;98997.83;124708;1093;64275;-22
2021/08/15 08:38:37;;;;;;;13.73;3.63;;;;;;;28.19;44.89;98984.88;124730;1092;64275;-22
2021/08/15 08:41:11;;;;;;;8.40;3.70;;;;;;;28.36;44.19;98994.78;124650;1093;64371;-22
2021/08/15 08:43:40;;;;;;;9.20;4.07;;;;;;;28.46;44.13;98997.63;124633;1093;64206;-22
2021/08/15 08:46:10;;;;;;;5.90;4.17;;;;;;;28.55;45.00;98976.59;124594;1093;64282;-22
2021/08/15 08:48:40;;;;;;;5.83;3.93;;;;;;;28.70;43.65;98988.59;124766;1093;64281;-21
2021/08/15 08:51:09;;;;;;;11.57;4.27;;;;;;;28.77;44.79;98987.38;124638;1093;64362;-23
2021/08/15 08:53:38;;;;;;;6.07;3.97;;;;;;;28.99;44.04;98988.47;124564;1093;64352;-22
2021/08/15 08:56:07;;;;;;;4.80;3.60;;;;;;;29.12;43.89;98990.79;124746;1093;64428;-22
2021/08/15 08:58:36;;;;;;;8.97;3.63;;;;;;;29.05;43.55;98977.55;124766;1092;64182;-22
2021/08/15 09:01:05;;;;;;;14.00;5.00;;;;;;;28.93;43.73;98985.72;124777;1093;64291;-22
2021/08/15 09:03:34;;;;;;;6.80;4.10;;;;;;;29.07;42.67;98977.32;124765;1093;64230;-22
2021/08/15 09:06:04;;;;;;;10.35;3.55;;;;;;;29.13;42.63;98975.50;124725;1093;64262;-22
2021/08/15 09:08:33;;;;;;;6.70;4.13;;;;;;;29.18;43.52;98967.53;124576;1093;64352;-22
2021/08/15 09:11:10;;;;;;;11.65;3.90;;;;;;;29.53;43.91;98977.88;124663;1093;64297;-22
2021/08/15 09:13:40;;;;;;;25.00;4.63;;;;;;;29.49;42.61;98974.08;124579;1092;64265;-22
2021/08/15 09:16:10;;;;;;;14.03;4.03;;;;;;;29.82;41.83;98968.74;124609;1093;64422;-22
2021/08/15 09:18:39;;;;;;;4.37;3.40;;;;;;;29.51;42.17;98957.72;124773;1093;64294;-22
2021/08/15 09:21:10;;;;;;;9.63;4.33;;;;;;;29.79;42.22;98956.66;124588;1092;64374;-22
2021/08/15 09:23:40;;;;;;;6.95;4.40;;;;;;;29.83;42.33;98957.77;124626;1093;64515;-22
2021/08/15 09:26:20;;;;;;;6.07;3.70;;;;;;;29.81;41.41;98962.58;124725;1092;64188;-22
2021/08/15 09:28:50;;;;;;;7.57;3.73;;;;;;;30.01;41.40;98953.13;124625;1093;64303;-22
2021/08/15 09:31:24;;;;;;;5.63;3.60;;;;;;;30.04;40.37;98949.11;124666;1093;64291;-22
2021/08/15 09:33:55;;;;;;;6.90;3.70;;;;;;;30.19;40.68;98948.42;124737;1093;64885;-22
2021/08/15 09:36:32;;;;;;;7.23;4.00;;;;;;;30.23;38.92;98949.52;124594;1093;64623;-22
2021/08/15 09:39:05;;;;;;;6.23;4.10;;;;;;;30.29;38.98;98945.81;124622;1093;64267;-22
2021/08/15 09:41:35;;;;;;;8.70;4.23;;;;;;;30.34;40.26;98940.48;124700;1093;64282;-22
2021/08/15 09:44:26;;;;;;;6.10;3.70;;;;;;;30.58;39.19;98940.10;124641;1093;64204;-22
2021/08/15 09:47:07;;;;;;;5.10;3.55;;;;;;;30.22;40.59;98940.67;124622;1093;64355;-22
2021/08/15 09:49:41;;;;;;;10.57;3.77;;;;;;;30.04;40.03;98931.13;124644;1093;64426;-22
2021/08/15 09:52:15;;;;;;;12.30;4.30;;;;;;;30.24;40.20;98940.41;124571;1093;64281;-22
2021/08/15 09:54:54;;;;;;;4.83;3.43;;;;;;;30.53;38.30;98931.98;124563;1093;64732;-22
2021/08/15 09:57:34;;;;;;;8.23;3.50;;;;;;;30.70;38.35;98934.52;124587;1093;64205;-22
2021/08/15 10:00:21;;;;;;;6.00;3.73;;;;;;;31.10;37.95;98932.27;124563;1093;64338;-22
2021/08/15 10:02:50;;;;;;;5.20;4.00;;;;;;;31.09;38.54;98934.16;124818;1093;64236;-22
2021/08/15 10:05:19;;;;;;;7.67;3.83;;;;;;;31.44;37.18;98923.78;124663;1093;64263;-22
2021/08/15 10:07:48;;;;;;;6.00;3.87;;;;;;;31.65;37.42;98924.61;124663;1093;64291;-22
2021/08/15 10:10:18;;;;;;;9.73;3.77;;;;;;;31.95;37.92;98922.23;124612;1093;64371;-22
2021/08/15 10:12:47;;;;;;;7.20;3.80;;;;;;;31.60;36.04;98922.73;124801;1093;64377;-22
2021/08/15 10:15:25;;;;;;;7.10;4.10;;;;;;;31.12;37.81;98914.00;124686;1092;64358;-23
2021/08/15 10:17:54;;;;;;;9.17;4.07;;;;;;;31.14;37.87;98919.92;124531;1093;64282;-24
2021/08/15 10:20:28;;;;;;;5.60;3.90;;;;;;;31.41;38.28;98913.55;124581;1092;64350;-24
2021/08/15 10:23:10;;;;;;;6.97;4.07;;;;;;;31.74;37.75;98914.17;124540;1093;64362;-25
2021/08/15 10:25:41;;;;;;;6.35;4.00;;;;;;;32.07;37.52;98903.92;124563;1093;64406;-25
2021/08/15 10:28:36;;;;;;;5.87;3.70;;;;;;;32.15;35.59;98899.86;124716;1092;64371;-23
2021/08/15 10:31:05;;;;;;;6.33;4.07;;;;;;;31.29;37.04;98901.17;124698;1092;64281;-23
2021/08/15 10:33:34;;;;;;;5.77;3.83;;;;;;;31.53;37.54;98897.97;124890;1093;64275;-23
2021/08/15 10:36:19;;;;;;;5.50;3.55;;;;;;;31.97;36.13;98899.36;124559;1093;64362;-23
2021/08/15 10:38:49;;;;;;;7.27;4.30;;;;;;;31.13;37.42;98886.04;124813;1092;64186;-23
2021/08/15 10:41:45;;;;;;;7.97;3.97;;;;;;;31.30;35.96;98896.59;124619;1093;64349;-29
2021/08/15 10:44:15;;;;;;;9.33;3.70;;;;;;;31.74;37.09;98893.44;124749;1093;64276;-23
2021/08/15 10:47:11;;;;;;;7.45;3.10;;;;;;;31.67;36.34;98884.78;124571;1092;64281;-23
2021/08/15 10:49:54;;;;;;;8.13;4.20;;;;;;;31.82;36.55;98884.00;124577;1093;64262;-29
2021/08/15 10:52:40;;;;;;;5.87;3.90;;;;;;;31.50;35.67;98885.05;124599;1093;64265;-26
2021/08/15 10:55:15;;;;;;;8.83;3.43;;;;;;;31.11;35.87;98886.31;124609;1093;64227;-25
2021/08/15 10:57:50;;;;;;;5.17;3.27;;;;;;;30.97;36.66;98880.61;124727;1093;64328;-25
2021/08/15 11:00:29;;;;;;;6.87;3.90;;;;;;;31.30;36.48;98880.45;124658;1093;64326;-23
2021/08/15 11:03:15;;;;;;;5.57;3.80;;;;;;;31.84;36.26;98879.16;124651;1093;64389;-23
2021/08/15 11:05:44;;;;;;;4.20;3.75;;;;;;;31.59;33.14;98870.00;124621;1093;64298;-22
2021/08/15 11:08:32;;;;;;;7.07;3.47;;;;;;;31.79;34.11;98878.36;124699;1093;64188;-22
2021/08/15 11:11:12;;;;;;;9.13;3.50;;;;;;;31.59;32.94;98859.23;124620;1092;64317;-24
2021/08/15 11:13:42;;;;;;;5.27;4.43;;;;;;;31.37;34.33;98858.67;124594;1092;64278;-22
2021/08/15 11:16:26;;;;;;;4.87;3.63;;;;;;;31.63;34.59;98870.25;124730;1093;64263;-22
2021/08/15 11:19:12;;;;;;;3.43;3.13;;;;;;;31.60;34.93;98863.54;124627;1093;64419;-22
2021/08/15 11:22:14;;;;;;;5.80;3.30;;;;;;;31.56;34.98;98867.84;124608;1093;64377;-22
2021/08/15 11:24:48;;;;;;;5.00;3.70;;;;;;;31.38;35.14;98857.59;124628;1093;64278;-22
2021/08/15 11:27:29;;;;;;;6.57;3.80;;;;;;;31.54;34.60;98856.54;124620;1093;64259;-22
2021/08/15 11:30:01;;;;;;;4.77;3.00;;;;;;;31.82;34.71;98842.84;124644;1093;64275;-22
2021/08/15 11:32:31;;;;;;;8.20;3.80;;;;;;;31.77;35.62;98846.35;124584;1093;64294;-22
2021/08/15 11:35:05;;;;;;;5.53;3.37;;;;;;;31.66;34.88;98844.70;124576;1093;64342;-22
2021/08/15 11:37:48;;;;;;;6.00;4.33;;;;;;;31.27;36.00;98838.78;124535;1093;64259;-22
2021/08/15 11:40:18;;;;;;;4.77;3.87;;;;;;;31.38;36.16;98834.21;124663;1093;64253;-22
2021/08/15 11:42:56;;;;;;;8.77;3.40;;;;;;;31.69;36.91;98831.51;124616;1093;64188;-22
2021/08/15 11:45:30;;;;;;;6.33;4.07;;;;;;;31.24;35.81;98825.05;124575;1093;64458;-22
2021/08/15 11:48:13;;;;;;;5.47;3.70;;;;;;;31.03;36.22;98829.55;124587;1093;64412;-22